Time;durP1;ratioP1;P1;durP2;ratioP2;P2;SDS_P1;SDS_P2;PMS_P1;PMS_P2;Temp;Humidity;BMP_temperature;BMP_pressure;BME280_temperature;BME280_humidity;BME280_pressure;Samples;Min_cycle;Max_cycle;Signal;HPM_P1;HPM_P2
2024/01/20 00:00:31;;;;;;;9.48;3.13;;;;;;;0.89;100.00;102302.19;7398373;19;20006;-72
2024/01/20 00:03:00;;;;;;;8.27;3.45;;;;;;;0.88;100.00;102303.13;7398591;19;19923;-73
2024/01/20 00:05:29;;;;;;;6.25;3.72;;;;;;;0.88;100.00;102299.63;7399781;19;19926;-73
2024/01/20 00:07:57;;;;;;;4.45;2.67;;;;;;;0.87;100.00;102305.84;7399135;19;19945;-74
2024/01/20 00:10:28;;;;;;;8.40;2.70;;;;;;;0.85;100.00;102316.56;7399899;19;20060;-73
2024/01/20 00:12:57;;;;;;;8.85;3.63;;;;;;;0.85;100.00;102305.09;7399283;19;19938;-72
2024/01/20 00:15:25;;;;;;;7.55;3.72;;;;;;;0.84;100.00;102306.03;7398437;19;19923;-72
2024/01/20 00:17:54;;;;;;;5.47;3.70;;;;;;;0.85;100.00;102305.94;7399602;19;20628;-72
2024/01/20 00:20:22;;;;;;;4.90;3.30;;;;;;;0.87;100.00;102301.41;7399371;19;19927;-72
2024/01/20 00:22:52;;;;;;;7.07;3.17;;;;;;;0.87;100.00;102296.09;7399699;19;19910;-74
2024/01/20 00:25:20;;;;;;;6.32;3.75;;;;;;;0.88;100.00;102305.78;7399265;19;19915;-72
2024/01/20 00:27:52;;;;;;;6.43;3.75;;;;;;;0.89;100.00;102301.34;7398713;19;19967;-72
2024/01/20 00:30:20;;;;;;;8.02;4.03;;;;;;;0.88;100.00;102308.44;7398255;19;19944;-72
2024/01/20 00:32:49;;;;;;;6.35;3.95;;;;;;;0.88;100.00;102319.03;7399218;19;19956;-72
2024/01/20 00:35:18;;;;;;;9.40;4.22;;;;;;;0.88;100.00;102303.13;7398166;19;19949;-71
2024/01/20 00:37:46;;;;;;;9.15;4.55;;;;;;;0.89;100.00;102319.91;7398509;19;19950;-71
2024/01/20 00:40:15;;;;;;;7.43;4.57;;;;;;;0.89;100.00;102307.50;7397354;19;19931;-72
2024/01/20 00:42:44;;;;;;;5.70;4.10;;;;;;;0.89;100.00;102310.16;7398411;19;19929;-72
2024/01/20 00:45:15;;;;;;;8.65;3.85;;;;;;;0.89;100.00;102309.28;7401623;19;19922;-72
2024/01/20 00:47:43;;;;;;;9.07;4.13;;;;;;;0.90;100.00;102300.41;7405333;19;19926;-72
2024/01/20 00:50:12;;;;;;;9.38;4.07;;;;;;;0.90;100.00;102303.06;7404258;19;19926;-72
2024/01/20 00:52:41;;;;;;;8.25;4.05;;;;;;;0.90;100.00;102309.22;7404765;19;19986;-72
2024/01/20 00:55:10;;;;;;;4.47;3.45;;;;;;;0.91;100.00;102307.41;7404196;19;20290;-72
2024/01/20 00:57:39;;;;;;;9.73;4.82;;;;;;;0.91;100.00;102310.06;7404966;19;19926;-72
2024/01/20 01:00:09;;;;;;;8.23;4.47;;;;;;;0.91;100.00;102316.22;7404200;19;19914;-72
2024/01/20 01:02:42;;;;;;;5.72;4.57;;;;;;;0.91;100.00;102308.25;7404654;19;19922;-72
2024/01/20 01:05:12;;;;;;;8.27;3.92;;;;;;;0.91;100.00;102313.56;7404489;19;20337;-72
2024/01/20 01:07:41;;;;;;;9.43;4.25;;;;;;;0.93;100.00;102305.53;7404069;19;20319;-72
2024/01/20 01:10:10;;;;;;;5.72;3.55;;;;;;;0.93;100.00;102317.94;7405416;19;19923;-73
2024/01/20 01:12:39;;;;;;;7.00;4.13;;;;;;;0.93;100.00;102315.28;7403842;19;19938;-72
2024/01/20 01:15:08;;;;;;;7.10;4.30;;;;;;;0.91;100.00;102320.66;7404355;19;19925;-72
2024/01/20 01:17:37;;;;;;;10.40;5.05;;;;;;;0.91;100.00;102328.63;7404301;19;20343;-72
2024/01/20 01:20:10;;;;;;;9.45;4.70;;;;;;;0.90;100.00;102317.19;7404477;19;20355;-72
2024/01/20 01:22:39;;;;;;;9.68;5.13;;;;;;;0.90;100.00;102316.31;7403850;19;19914;-73
2024/01/20 01:25:09;;;;;;;10.18;5.50;;;;;;;0.89;100.00;102314.59;7404412;19;19930;-72
2024/01/20 01:27:37;;;;;;;9.95;4.57;;;;;;;0.91;100.00;102323.31;7404838;19;20002;-73
2024/01/20 01:30:07;;;;;;;7.57;5.38;;;;;;;0.90;100.00;102316.31;7403679;19;19918;-73
2024/01/20 01:32:36;;;;;;;8.88;4.75;;;;;;;0.90;100.00;102322.50;7404181;19;19922;-72
2024/01/20 01:35:07;;;;;;;8.18;4.80;;;;;;;0.88;100.00;102323.50;7404190;19;19952;-73
2024/01/20 01:37:36;;;;;;;11.20;5.15;;;;;;;0.83;100.00;102342.28;7404842;19;19922;-73
2024/01/20 01:40:05;;;;;;;8.60;5.00;;;;;;;0.84;100.00;102343.16;7402423;19;19948;-73
2024/01/20 01:42:34;;;;;;;8.02;5.20;;;;;;;0.83;100.00;102349.38;7404295;19;19931;-73
2024/01/20 01:45:02;;;;;;;8.20;5.07;;;;;;;0.83;100.00;102350.25;7403468;19;19910;-73
2024/01/20 01:47:31;;;;;;;10.05;4.50;;;;;;;0.81;100.00;102338.88;7403124;19;20307;-73
2024/01/20 01:50:00;;;;;;;7.47;4.70;;;;;;;0.79;100.00;102342.53;7403164;19;19922;-73
2024/01/20 01:52:33;;;;;;;9.80;5.57;;;;;;;0.76;100.00;102348.84;7403997;19;19914;-73
2024/01/20 01:55:03;;;;;;;9.07;5.63;;;;;;;0.74;100.00;102347.19;7402621;19;19910;-73
2024/01/20 01:57:32;;;;;;;10.35;5.85;;;;;;;0.71;100.00;102358.84;7403528;19;19937;-73
2024/01/20 02:00:01;;;;;;;15.40;7.03;;;;;;;0.69;100.00;102358.03;7402913;19;19935;-73
2024/01/20 02:02:30;;;;;;;9.23;5.53;;;;;;;0.66;100.00;102360.00;7403836;19;19922;-73
2024/01/20 02:04:58;;;;;;;9.57;5.97;;;;;;;0.63;100.00;102368.13;7403576;19;19922;-73
2024/01/20 02:07:28;;;;;;;9.60;6.00;;;;;;;0.61;100.00;102359.38;7403254;19;19922;-73
2024/01/20 02:10:00;;;;;;;8.57;5.72;;;;;;;0.58;100.00;102357.72;7403199;19;19978;-73
2024/01/20 02:12:29;;;;;;;11.40;6.10;;;;;;;0.56;100.00;102364.06;7403289;19;20371;-73
2024/01/20 02:14:58;;;;;;;9.63;5.95;;;;;;;0.50;100.00;102359.91;7403452;19;19929;-73
2024/01/20 02:17:27;;;;;;;10.55;6.82;;;;;;;0.48;100.00;102361.75;7404358;19;19946;-72
2024/01/20 02:19:55;;;;;;;9.63;5.78;;;;;;;0.46;100.00;102366.31;7403802;19;19929;-72
2024/01/20 02:22:26;;;;;;;11.23;5.75;;;;;;;0.45;100.00;102357.50;7401583;19;19970;-72
2024/01/20 02:24:55;;;;;;;9.68;5.80;;;;;;;0.44;100.00;102363.72;7402947;19;19945;-72
2024/01/20 02:27:23;;;;;;;12.93;6.93;;;;;;;0.43;100.00;102354.03;7403075;19;19911;-73
2024/01/20 02:29:52;;;;;;;13.55;6.70;;;;;;;0.43;100.00;102364.66;7403487;19;19919;-72
2024/01/20 02:32:23;;;;;;;10.38;6.85;;;;;;;0.42;100.00;102362.09;7402155;19;19919;-73
2024/01/20 02:34:52;;;;;;;12.02;6.30;;;;;;;0.39;100.00;102365.72;7403210;19;20446;-73
2024/01/20 02:37:20;;;;;;;11.15;6.95;;;;;;;0.38;100.00;102356.09;7402020;19;20243;-73
2024/01/20 02:39:52;;;;;;;12.98;7.13;;;;;;;0.37;100.00;102357.00;7402595;19;19919;-73
2024/01/20 02:42:20;;;;;;;13.63;7.35;;;;;;;0.35;100.00;102366.81;7402475;19;19922;-73
2024/01/20 02:44:50;;;;;;;10.77;7.85;;;;;;;0.34;100.00;102365.13;7402556;19;19929;-72
2024/01/20 02:47:19;;;;;;;8.32;6.45;;;;;;;0.33;100.00;102366.06;7402828;19;19922;-73
2024/01/20 02:49:47;;;;;;;13.48;8.00;;;;;;;0.32;100.00;102377.56;7401782;19;19914;-72
2024/01/20 02:52:16;;;;;;;11.65;6.63;;;;;;;0.32;100.00;102374.94;7403133;19;19918;-72
2024/01/20 02:54:44;;;;;;;10.63;6.65;;;;;;;0.32;100.00;102360.81;7401096;19;19919;-72
2024/01/20 02:57:16;;;;;;;11.77;7.60;;;;;;;0.32;100.00;102384.66;7402790;19;19918;-72
2024/01/20 02:59:44;;;;;;;15.68;6.93;;;;;;;0.31;100.00;102373.19;7401693;19;19910;-72
2024/01/20 03:02:13;;;;;;;13.95;8.25;;;;;;;0.33;100.00;102378.44;7402310;19;20391;-72
2024/01/20 03:04:42;;;;;;;16.05;7.55;;;;;;;0.34;100.00;102401.38;7401705;19;19922;-73
2024/01/20 03:07:10;;;;;;;13.07;7.82;;;;;;;0.34;100.00;102393.41;7399232;19;19927;-73
2024/01/20 03:09:40;;;;;;;16.98;7.80;;;;;;;0.32;100.00;102393.47;7401807;19;19918;-73
2024/01/20 03:12:09;;;;;;;15.02;8.52;;;;;;;0.32;100.00;102379.38;7402429;19;19918;-73
2024/01/20 03:14:40;;;;;;;17.65;8.82;;;;;;;0.30;100.00;102394.50;7401680;19;19914;-72
2024/01/20 03:17:08;;;;;;;18.10;8.75;;;;;;;0.29;100.00;102392.78;7401046;19;19950;-73
2024/01/20 03:19:37;;;;;;;12.95;8.25;;;;;;;0.28;100.00;102397.22;7401736;19;19919;-73
2024/01/20 03:22:06;;;;;;;16.42;9.25;;;;;;;0.28;100.00;102418.41;7400580;19;19918;-72
2024/01/20 03:24:34;;;;;;;15.43;8.10;;;;;;;0.27;100.00;102391.97;7401818;19;19956;-72
2024/01/20 03:27:03;;;;;;;12.35;7.95;;;;;;;0.23;100.00;102387.75;7401201;19;19911;-72
2024/01/20 03:29:31;;;;;;;14.90;8.68;;;;;;;0.23;100.00;102393.06;7400548;19;20248;-74
2024/01/20 03:32:02;;;;;;;17.38;10.55;;;;;;;0.21;100.00;102401.09;7400680;19;19927;-72
2024/01/20 03:34:31;;;;;;;15.88;8.77;;;;;;;0.21;100.00;102405.53;7401620;19;19931;-72
2024/01/20 03:36:59;;;;;;;16.42;9.18;;;;;;;0.20;100.00;102401.16;7398873;19;19931;-72
2024/01/20 03:39:28;;;;;;;14.38;8.82;;;;;;;0.18;100.00;102401.22;7400169;19;19941;-72
2024/01/20 03:41:57;;;;;;;14.45;9.02;;;;;;;0.16;100.00;102403.09;7399881;19;19936;-72
2024/01/20 03:44:25;;;;;;;17.10;9.40;;;;;;;0.15;100.00;102396.09;7399267;19;19940;-72
2024/01/20 03:46:54;;;;;;;18.35;10.00;;;;;;;0.17;100.00;102407.47;7401533;19;19922;-72
2024/01/20 03:49:25;;;;;;;16.35;8.50;;;;;;;0.18;100.00;102405.66;7399470;19;20261;-72
2024/01/20 03:51:54;;;;;;;15.82;9.35;;;;;;;0.19;100.00;102400.31;7400854;19;19915;-72
2024/01/20 03:54:22;;;;;;;13.35;8.25;;;;;;;0.21;100.00;102416.13;7400020;19;19926;-72
2024/01/20 03:56:51;;;;;;;16.05;8.25;;;;;;;0.19;100.00;102410.91;7400617;19;19953;-72
2024/01/20 03:59:19;;;;;;;15.00;8.98;;;;;;;0.18;100.00;102405.66;7400103;19;20344;-72
2024/01/20 04:01:48;;;;;;;17.05;10.45;;;;;;;0.19;100.00;102418.84;7400055;19;19923;-72
2024/01/20 04:04:16;;;;;;;17.13;9.52;;;;;;;0.20;100.00;102425.00;7399729;19;19942;-72
2024/01/20 04:06:47;;;;;;;13.75;9.13;;;;;;;0.19;100.00;102418.00;7399830;19;19922;-72
2024/01/20 04:09:16;;;;;;;16.88;9.80;;;;;;;0.18;100.00;102424.22;7399907;19;19918;-72
2024/01/20 04:11:45;;;;;;;18.55;9.65;;;;;;;0.19;100.00;102423.28;7399374;19;19926;-72
2024/01/20 04:14:15;;;;;;;14.32;8.90;;;;;;;0.19;100.00;102420.63;7399361;19;19953;-72
2024/01/20 04:16:44;;;;;;;13.77;9.75;;;;;;;0.19;100.00;102433.88;7399767;19;19915;-72
2024/01/20 04:19:12;;;;;;;18.92;9.82;;;;;;;0.17;100.00;102423.38;7400675;19;19918;-72
2024/01/20 04:21:42;;;;;;;19.80;10.50;;;;;;;0.18;100.00;102430.38;7405789;19;20248;-72
2024/01/20 04:24:13;;;;;;;16.60;9.00;;;;;;;0.18;100.00;102432.16;7405631;19;19918;-72
2024/01/20 04:26:42;;;;;;;15.20;9.20;;;;;;;0.15;100.00;102438.47;7406115;19;20389;-73
2024/01/20 04:29:10;;;;;;;16.77;10.57;;;;;;;0.14;100.00;102427.94;7404519;19;19915;-72
2024/01/20 04:31:39;;;;;;;19.17;9.63;;;;;;;0.11;100.00;102430.75;7404952;19;19938;-72
2024/01/20 04:34:07;;;;;;;13.93;8.73;;;;;;;0.08;100.00;102425.59;7404622;19;20248;-72
2024/01/20 04:36:36;;;;;;;15.80;8.13;;;;;;;0.06;100.00;102432.75;7404615;19;19939;-72
2024/01/20 04:39:04;;;;;;;14.85;8.43;;;;;;;0.06;100.00;102443.34;7404376;19;19927;-72
2024/01/20 04:41:36;;;;;;;14.55;9.55;;;;;;;0.04;100.00;102447.88;7405163;19;19922;-72
2024/01/20 04:44:04;;;;;;;15.07;9.00;;;;;;;0.03;100.00;102446.13;7404438;19;19930;-72
2024/01/20 04:46:33;;;;;;;17.50;8.95;;;;;;;0.02;100.00;102453.22;7405104;19;19918;-72
2024/01/20 04:49:02;;;;;;;18.17;9.73;;;;;;;-0.01;100.00;102450.72;7403989;19;19926;-71
2024/01/20 04:51:30;;;;;;;15.85;9.30;;;;;;;-0.09;100.00;102439.63;7405025;19;20240;-73
2024/01/20 04:53:59;;;;;;;16.30;10.05;;;;;;;-0.19;100.00;102444.47;7405212;19;19915;-72
2024/01/20 04:56:27;;;;;;;19.23;10.80;;;;;;;-0.29;100.00;102445.81;7404525;19;19922;-72
2024/01/20 04:58:58;;;;;;;19.55;11.48;;;;;;;-0.36;100.00;102454.09;7404743;19;19914;-72
2024/01/20 05:01:27;;;;;;;17.30;10.20;;;;;;;-0.43;100.00;102461.44;7403641;19;19926;-72
2024/01/20 05:03:55;;;;;;;18.33;11.52;;;;;;;-0.50;100.00;102452.94;7404303;19;19922;-72
2024/01/20 05:06:24;;;;;;;16.52;10.43;;;;;;;-0.53;100.00;102454.84;7403671;19;19954;-73
2024/01/20 05:08:52;;;;;;;19.17;10.55;;;;;;;-0.56;100.00;102455.81;7404889;19;20501;-72
2024/01/20 05:11:21;;;;;;;20.25;11.15;;;;;;;-0.55;100.00;102465.50;7403840;19;19958;-72
2024/01/20 05:13:50;;;;;;;17.60;10.52;;;;;;;-0.57;100.00;102459.44;7404843;19;19922;-72
2024/01/20 05:16:21;;;;;;;17.75;10.38;;;;;;;-0.56;100.00;102458.47;7404253;19;20429;-72
2024/01/20 05:18:52;;;;;;;17.20;9.40;;;;;;;-0.56;100.00;102465.59;7404909;19;19922;-72
2024/01/20 05:21:22;;;;;;;17.05;10.45;;;;;;;-0.56;100.00;102461.13;7404701;19;19918;-72
2024/01/20 05:23:51;;;;;;;17.42;9.40;;;;;;;-0.54;100.00;102459.28;7403612;19;19946;-72
2024/01/20 05:26:20;;;;;;;19.92;10.48;;;;;;;-0.52;100.00;102464.53;7402952;19;19938;-72
2024/01/20 05:28:48;;;;;;;17.65;10.18;;;;;;;-0.49;100.00;102467.03;7404115;19;20618;-72
2024/01/20 05:31:17;;;;;;;17.63;10.25;;;;;;;-0.51;100.00;102472.38;7402667;19;19923;-72
2024/01/20 05:33:48;;;;;;;16.10;9.80;;;;;;;-0.50;100.00;102466.16;7403452;19;19918;-73
2024/01/20 05:36:17;;;;;;;17.15;10.25;;;;;;;-0.49;100.00;102475.84;7403700;19;19918;-72
2024/01/20 05:38:45;;;;;;;16.60;8.90;;;;;;;-0.47;100.00;102479.25;7403773;19;19939;-72
2024/01/20 05:41:14;;;;;;;19.27;10.43;;;;;;;-0.46;100.00;102477.47;7404226;19;19919;-72
2024/01/20 05:43:42;;;;;;;20.52;11.13;;;;;;;-0.48;100.00;102480.22;7403963;19;19915;-72
2024/01/20 05:46:11;;;;;;;22.40;11.13;;;;;;;-0.54;100.00;102484.88;7402829;19;19918;-72
2024/01/20 05:48:39;;;;;;;18.58;10.23;;;;;;;-0.61;100.00;102476.38;7402929;19;19945;-72
2024/01/20 05:51:10;;;;;;;20.83;11.77;;;;;;;-0.66;100.00;102475.69;7404048;19;19953;-72
2024/01/20 05:53:39;;;;;;;20.42;10.98;;;;;;;-0.71;100.00;102472.38;7402842;19;19930;-72
2024/01/20 05:56:08;;;;;;;17.73;11.23;;;;;;;-0.73;100.00;102476.00;7403489;19;20358;-73
2024/01/20 05:58:37;;;;;;;21.20;11.30;;;;;;;-0.74;100.00;102479.59;7403096;19;19922;-72
2024/01/20 06:01:05;;;;;;;21.20;10.38;;;;;;;-0.76;100.00;102486.72;7403072;19;19923;-72
2024/01/20 06:03:34;;;;;;;24.63;10.82;;;;;;;-0.75;100.00;102483.16;7402655;19;20283;-72
2024/01/20 06:06:03;;;;;;;24.55;11.07;;;;;;;-0.74;100.00;102479.59;7404015;19;19939;-71
2024/01/20 06:08:34;;;;;;;25.00;11.77;;;;;;;-0.71;100.00;102480.31;7403304;19;19935;-72
2024/01/20 06:11:02;;;;;;;23.63;11.45;;;;;;;-0.67;100.00;102481.91;7403578;19;19911;-72
2024/01/20 06:13:31;;;;;;;22.15;11.32;;;;;;;-0.67;100.00;102489.00;7403282;19;19918;-72
2024/01/20 06:16:01;;;;;;;23.40;10.68;;;;;;;-0.66;100.00;102496.00;7402840;19;19923;-72
2024/01/20 06:18:31;;;;;;;22.17;10.80;;;;;;;-0.65;100.00;102498.59;7403531;19;20303;-72
2024/01/20 06:21:00;;;;;;;20.92;11.82;;;;;;;-0.66;100.00;102493.38;7402618;19;19929;-72
2024/01/20 06:23:28;;;;;;;26.77;13.63;;;;;;;-0.69;100.00;102504.09;7402566;19;19926;-72
2024/01/20 06:26:00;;;;;;;25.08;13.20;;;;;;;-0.74;100.00;102499.00;7402795;19;19915;-72
2024/01/20 06:28:28;;;;;;;24.80;11.25;;;;;;;-0.81;100.00;102502.78;7403609;19;20326;-73
2024/01/20 06:30:57;;;;;;;27.08;13.25;;;;;;;-0.84;100.00;102513.53;7402695;19;19918;-72
2024/01/20 06:33:25;;;;;;;25.77;12.45;;;;;;;-0.87;100.00;102520.72;7403411;19;20480;-72
2024/01/20 06:35:54;;;;;;;26.05;11.82;;;;;;;-0.91;100.00;102520.81;7402562;19;19934;-72
2024/01/20 06:38:22;;;;;;;24.65;12.13;;;;;;;-0.91;100.00;102518.19;7402883;19;20453;-72
2024/01/20 06:40:51;;;;;;;24.08;11.95;;;;;;;-0.93;100.00;102522.69;7402513;19;19922;-72
2024/01/20 06:43:22;;;;;;;29.00;12.43;;;;;;;-0.94;100.00;102520.09;7399546;19;19942;-72
2024/01/20 06:45:51;;;;;;;25.23;13.15;;;;;;;-0.96;100.00;102522.84;7401416;19;19936;-72
2024/01/20 06:48:20;;;;;;;23.05;11.20;;;;;;;-0.98;100.00;102532.59;7401774;19;19922;-72
2024/01/20 06:50:48;;;;;;;27.35;12.55;;;;;;;-0.96;100.00;102524.59;7402479;19;19938;-72
2024/01/20 06:53:17;;;;;;;28.08;12.70;;;;;;;-0.95;100.00;102536.91;7401762;19;19922;-72
2024/01/20 06:55:45;;;;;;;29.13;12.35;;;;;;;-0.93;100.00;102519.19;7402405;19;19918;-72
2024/01/20 06:58:14;;;;;;;29.50;12.65;;;;;;;-0.91;100.00;102543.81;7401924;19;19935;-72
2024/01/20 07:00:45;;;;;;;27.77;11.38;;;;;;;-0.88;100.00;102542.81;7402315;19;19930;-72
2024/01/20 07:03:13;;;;;;;19.70;9.80;;;;;;;-0.88;100.00;102534.88;7401663;19;19923;-72
2024/01/20 07:05:42;;;;;;;28.35;12.73;;;;;;;-0.87;100.00;102545.41;7402235;19;19918;-72
2024/01/20 07:08:12;;;;;;;23.90;11.23;;;;;;;-0.87;100.00;102544.53;7400435;19;20303;-72
2024/01/20 07:10:41;;;;;;;25.00;11.90;;;;;;;-0.86;100.00;102541.81;7402151;19;19922;-72
2024/01/20 07:13:09;;;;;;;26.02;12.07;;;;;;;-0.84;100.00;102542.63;7400473;19;19922;-72
2024/01/20 07:15:38;;;;;;;27.08;12.43;;;;;;;-0.84;100.00;102544.41;7401704;19;19918;-72
2024/01/20 07:18:10;;;;;;;26.88;11.50;;;;;;;-0.87;100.00;102545.41;7401294;19;19923;-72
2024/01/20 07:20:38;;;;;;;26.92;10.98;;;;;;;-0.87;100.00;102555.13;7401807;19;19926;-72
2024/01/20 07:23:07;;;;;;;25.27;11.40;;;;;;;-0.91;100.00;102549.94;7401181;19;19931;-73
2024/01/20 07:25:36;;;;;;;25.42;11.25;;;;;;;-0.93;100.00;102550.94;7401471;19;20339;-72
2024/01/20 07:28:06;;;;;;;21.63;10.60;;;;;;;-0.98;100.00;102556.41;7401260;19;20316;-72
2024/01/20 07:30:35;;;;;;;28.55;12.35;;;;;;;-1.00;100.00;102558.25;7401147;19;19923;-72
2024/01/20 07:33:03;;;;;;;23.55;11.63;;;;;;;-0.99;100.00;102561.75;7401752;19;19923;-72
2024/01/20 07:35:34;;;;;;;28.10;13.68;;;;;;;-0.99;100.00;102559.09;7400902;19;19922;-72
2024/01/20 07:38:04;;;;;;;;;;;;;;;-1.02;100.00;102557.44;7405085;19;20285;-72
2024/01/20 07:40:34;;;;;;;26.92;11.27;;;;;;;-1.00;100.00;102562.69;7400572;19;19918;-72
2024/01/20 07:43:03;;;;;;;25.88;11.57;;;;;;;-1.01;100.00;102567.13;7401293;19;20331;-72
2024/01/20 07:45:33;;;;;;;22.77;11.02;;;;;;;-0.98;100.00;102563.47;7400519;19;19918;-72
2024/01/20 07:48:03;;;;;;;26.27;11.65;;;;;;;-0.98;100.00;102559.03;7400784;19;19922;-72
2024/01/20 07:50:35;;;;;;;26.60;10.52;;;;;;;-0.95;100.00;102569.50;7400130;19;19945;-73
2024/01/20 07:53:05;;;;;;;;;;;;;;;-0.95;100.00;102558.09;7404208;19;19923;-72
2024/01/20 07:55:35;;;;;;;;;;;;;;;-0.93;100.00;102570.31;7408418;19;20287;-72
2024/01/20 07:58:04;;;;;;;29.58;12.13;;;;;;;-0.93;100.00;102572.94;7406854;19;20422;-72
2024/01/20 08:00:34;;;;;;;26.73;11.55;;;;;;;-0.89;100.00;102578.97;7406902;19;19915;-72
2024/01/20 08:03:04;;;;;;;24.70;10.80;;;;;;;-0.87;100.00;102578.94;7406100;19;20271;-72
2024/01/20 08:05:34;;;;;;;24.00;10.68;;;;;;;-0.83;100.00;102585.81;7407214;19;20344;-72
2024/01/20 08:08:03;;;;;;;25.27;10.40;;;;;;;-0.81;100.00;102579.53;7406778;19;20318;-72
2024/01/20 08:10:33;;;;;;;24.15;11.48;;;;;;;-0.75;100.00;102589.00;7406814;19;20358;-72
2024/01/20 08:13:03;;;;;;;27.45;11.70;;;;;;;-0.71;100.00;102583.53;7405920;19;19915;-72
2024/01/20 08:15:33;;;;;;;26.83;13.00;;;;;;;-0.64;100.00;102592.06;7407297;19;19922;-72
2024/01/20 08:18:03;;;;;;;23.88;10.57;;;;;;;-0.61;100.00;102587.53;7405924;19;19915;-72
2024/01/20 08:20:32;;;;;;;24.67;9.73;;;;;;;-0.60;100.00;102599.81;7406112;19;19926;-72
2024/01/20 08:23:04;;;;;;;24.80;10.75;;;;;;;-0.54;100.00;102601.34;7405495;19;19933;-72
2024/01/20 08:25:34;;;;;;;23.80;10.05;;;;;;;-0.51;100.00;102596.78;7404620;19;20275;-72
2024/01/20 08:28:03;;;;;;;27.70;12.43;;;;;;;-0.49;100.00;102594.94;7405917;19;19927;-72
2024/01/20 08:30:32;;;;;;;30.55;11.70;;;;;;;-0.50;100.00;102603.81;7405263;19;19918;-72
2024/01/20 08:33:02;;;;;;;27.58;12.88;;;;;;;-0.47;100.00;102602.81;7406206;19;19926;-72
2024/01/20 08:35:31;;;;;;;22.23;11.13;;;;;;;-0.45;100.00;102608.91;7405015;19;19922;-72
2024/01/20 08:38:03;;;;;;;26.25;11.70;;;;;;;-0.41;100.00;102613.16;7404525;19;19923;-72
2024/01/20 08:40:32;;;;;;;21.88;10.20;;;;;;;-0.35;100.00;102601.44;7404348;19;19922;-72
2024/01/20 08:43:02;;;;;;;26.67;12.07;;;;;;;-0.28;100.00;102629.38;7405264;19;20328;-72
2024/01/20 08:45:31;;;;;;;23.73;10.35;;;;;;;-0.21;100.00;102613.16;7405007;19;19926;-71
2024/01/20 08:48:01;;;;;;;22.55;11.25;;;;;;;-0.12;100.00;102610.13;7404811;19;19921;-73
2024/01/20 08:50:30;;;;;;;24.80;11.20;;;;;;;-0.06;100.00;102623.13;7403903;19;20489;-73
2024/01/20 08:52:59;;;;;;;23.90;10.93;;;;;;;-0.01;100.00;102622.91;7404581;19;19918;-73
2024/01/20 08:55:31;;;;;;;27.95;11.68;;;;;;;0.02;100.00;102651.91;7404279;19;19923;-73
2024/01/20 08:58:01;;;;;;;22.85;12.02;;;;;;;0.10;100.00;102636.53;7404854;19;19910;-73
2024/01/20 09:00:31;;;;;;;24.85;12.68;;;;;;;0.14;100.00;102624.88;7404480;19;19919;-73
2024/01/20 09:03:00;;;;;;;25.23;11.65;;;;;;;0.20;100.00;102629.06;7404603;19;19918;-73
2024/01/20 09:05:30;;;;;;;23.02;9.90;;;;;;;0.22;100.00;102635.13;7401781;19;19934;-73
2024/01/20 09:07:58;;;;;;;27.70;12.32;;;;;;;0.25;100.00;102635.91;7403322;19;20407;-73
2024/01/20 09:10:27;;;;;;;26.40;11.50;;;;;;;0.32;100.00;102639.13;7404722;19;19946;-73
2024/01/20 09:12:58;;;;;;;25.23;11.07;;;;;;;0.36;100.00;102654.81;7403552;19;19922;-73
2024/01/20 09:15:27;;;;;;;25.30;10.95;;;;;;;0.38;100.00;102650.31;7403626;19;20363;-73
2024/01/20 09:17:56;;;;;;;24.10;11.40;;;;;;;0.41;100.00;102641.34;7403254;19;19918;-73
2024/01/20 09:20:25;;;;;;;24.02;12.02;;;;;;;0.38;100.00;102652.13;7403820;19;20348;-73
2024/01/20 09:22:53;;;;;;;26.15;11.65;;;;;;;0.34;100.00;102645.22;7402014;19;19919;-73
2024/01/20 09:25:22;;;;;;;27.83;11.20;;;;;;;0.32;100.00;102641.78;7404096;19;20038;-73
2024/01/20 09:27:51;;;;;;;25.75;10.05;;;;;;;0.29;100.00;102653.38;7403440;19;19919;-73
2024/01/20 09:30:22;;;;;;;24.42;10.75;;;;;;;0.29;100.00;102660.47;7404089;19;20649;-71
2024/01/20 09:32:51;;;;;;;27.70;12.13;;;;;;;0.25;100.00;102656.22;7403237;19;19918;-71
2024/01/20 09:35:19;;;;;;;22.50;10.90;;;;;;;0.25;100.00;102664.19;7401604;19;19930;-71
2024/01/20 09:37:48;;;;;;;29.15;11.75;;;;;;;0.26;100.00;102665.91;7403513;19;19951;-71
2024/01/20 09:40:18;;;;;;;25.27;10.63;;;;;;;0.26;100.00;102673.88;7402428;19;20249;-72
2024/01/20 09:42:47;;;;;;;31.27;12.45;;;;;;;0.25;100.00;102670.34;7403928;19;19919;-72
2024/01/20 09:45:16;;;;;;;23.95;11.25;;;;;;;0.25;100.00;102677.44;7402584;19;19947;-72
2024/01/20 09:47:47;;;;;;;30.20;12.30;;;;;;;0.27;100.00;102681.72;7403034;19;20336;-72
2024/01/20 09:50:16;;;;;;;25.13;11.50;;;;;;;0.27;100.00;102675.56;7403106;19;20028;-73
2024/01/20 09:52:56;;;;;;;26.33;10.95;;;;;;;0.28;100.00;102694.06;7403481;19;19999;-73
2024/01/20 09:55:27;;;;;;;25.42;11.95;;;;;;;0.28;100.00;102693.19;7402686;19;19915;-73
2024/01/20 09:57:57;;;;;;;28.67;11.85;;;;;;;0.28;100.00;102696.72;7402988;19;19938;-72
2024/01/20 10:00:26;;;;;;;23.25;10.65;;;;;;;0.32;100.00;102702.72;7402639;19;20291;-72
2024/01/20 10:02:58;;;;;;;22.58;10.00;;;;;;;0.35;100.00;102692.84;7403540;19;20272;-72
2024/01/20 10:05:27;;;;;;;27.40;11.95;;;;;;;0.38;100.00;102694.53;7403197;19;19948;-72
2024/01/20 10:07:57;;;;;;;25.27;12.27;;;;;;;0.40;100.00;102690.88;7402437;19;19923;-72
2024/01/20 10:10:26;;;;;;;23.90;11.10;;;;;;;0.41;100.00;102689.94;7401840;19;19921;-72
2024/01/20 10:12:57;;;;;;;27.88;11.85;;;;;;;0.44;100.00;102700.41;7403106;19;19926;-72
2024/01/20 10:15:28;;;;;;;25.50;12.73;;;;;;;0.47;100.00;102694.13;7403332;19;19925;-72
2024/01/20 10:18:00;;;;;;;29.58;12.55;;;;;;;0.51;100.00;102694.84;7399260;19;19910;-72
2024/01/20 10:20:31;;;;;;;26.30;12.60;;;;;;;0.54;100.00;102698.22;7403241;19;19926;-72
2024/01/20 10:23:03;;;;;;;22.15;9.55;;;;;;;0.59;100.00;102701.53;7402865;19;19990;-71
2024/01/20 10:25:32;;;;;;;18.58;10.13;;;;;;;0.62;100.00;102700.53;7403613;19;19938;-71
2024/01/20 10:28:01;;;;;;;21.63;10.32;;;;;;;0.67;100.00;102702.03;7402919;19;19918;-72
2024/01/20 10:30:30;;;;;;;26.20;12.30;;;;;;;0.72;100.00;102702.69;7403037;19;19910;-72
2024/01/20 10:33:02;;;;;;;25.40;10.48;;;;;;;0.77;100.00;102703.38;7402690;19;19919;-71
2024/01/20 10:35:30;;;;;;;24.02;10.07;;;;;;;0.81;100.00;102704.09;7401335;19;19919;-72
2024/01/20 10:38:02;;;;;;;28.55;10.38;;;;;;;0.85;100.00;102701.22;7403261;19;20359;-71
2024/01/20 10:40:31;;;;;;;21.58;9.43;;;;;;;0.87;100.00;102703.78;7402345;19;19941;-71
2024/01/20 10:43:10;;;;;;;24.88;10.55;;;;;;;0.87;100.00;102707.31;7402939;19;20273;-72
2024/01/20 10:45:46;;;;;;;22.08;10.75;;;;;;;0.90;100.00;102706.31;7402219;19;20008;-71
2024/01/20 10:48:21;;;;;;;23.58;11.27;;;;;;;0.92;100.00;102701.78;7401878;19;19918;-71
2024/01/20 10:50:56;;;;;;;22.67;11.48;;;;;;;0.95;100.00;102698.97;7402326;19;19921;-72
2024/01/20 10:53:26;;;;;;;23.42;10.98;;;;;;;0.97;100.00;102701.56;7401675;19;20347;-72
2024/01/20 10:55:55;;;;;;;22.08;10.82;;;;;;;0.98;100.00;102692.69;7401467;19;19926;-72
2024/01/20 10:58:30;;;;;;;22.35;9.35;;;;;;;0.96;100.00;102706.00;7401741;19;20406;-72
2024/01/20 11:00:59;;;;;;;25.70;11.27;;;;;;;0.99;100.00;102703.25;7402788;19;19942;-71
2024/01/20 11:03:31;;;;;;;23.05;10.68;;;;;;;1.01;100.00;102708.47;7400357;19;19918;-72
2024/01/20 11:06:00;;;;;;;23.05;10.25;;;;;;;1.02;100.00;102713.72;7401968;19;20402;-72
2024/01/20 11:08:28;;;;;;;22.25;10.35;;;;;;;1.06;100.00;102703.81;7401292;19;19951;-72
2024/01/20 11:10:58;;;;;;;19.35;9.80;;;;;;;1.07;100.00;102698.44;7402079;19;19922;-72
2024/01/20 11:13:28;;;;;;;20.02;9.82;;;;;;;1.09;100.00;102693.03;7401593;19;19926;-72
2024/01/20 11:15:58;;;;;;;24.73;9.90;;;;;;;1.12;100.00;102696.41;7401623;19;19919;-72
2024/01/20 11:18:30;;;;;;;24.77;11.05;;;;;;;1.19;100.00;102694.34;7400893;19;19922;-72
2024/01/20 11:21:01;;;;;;;22.90;10.52;;;;;;;1.26;100.00;102703.72;7400772;19;20714;-72